createdAt,value
2022-10-13T00:01:13.674Z,15.53
2022-10-13T00:03:42.465Z,15.50
2022-10-13T00:06:10.951Z,15.52
2022-10-13T00:08:39.282Z,15.49
2022-10-13T00:11:10.721Z,15.48
2022-10-13T00:13:39.984Z,15.47
2022-10-13T00:16:08.018Z,15.48
2022-10-13T00:18:35.051Z,15.51
2022-10-13T00:21:07.728Z,15.54
2022-10-13T00:23:36.029Z,15.56
2022-10-13T00:26:08.738Z,15.61
2022-10-13T00:28:37.148Z,15.59
2022-10-13T00:31:04.790Z,15.61
2022-10-13T00:33:31.919Z,15.60
2022-10-13T00:35:59.019Z,15.60
2022-10-13T00:38:26.188Z,15.59
2022-10-13T00:40:55.584Z,15.59
2022-10-13T00:43:28.219Z,15.60
2022-10-13T00:45:55.300Z,15.55
2022-10-13T00:48:28.440Z,15.61
2022-10-13T00:50:57.041Z,15.63
2022-10-13T00:53:31.628Z,15.66
2022-10-13T00:55:59.694Z,15.64
2022-10-13T00:58:32.904Z,15.67
2022-10-13T01:01:01.757Z,15.67
2022-10-13T01:03:28.793Z,15.67
2022-10-13T01:05:59.772Z,15.69
2022-10-13T01:08:29.524Z,15.65
2022-10-13T01:11:12.930Z,15.57
2022-10-13T01:13:57.107Z,15.53
2022-10-13T01:16:36.099Z,15.54
2022-10-13T01:19:40.729Z,15.56
2022-10-13T01:22:10.297Z,15.55
2022-10-13T01:24:58.175Z,15.60
2022-10-13T01:27:57.371Z,15.60
2022-10-13T01:30:24.486Z,15.59
2022-10-13T01:33:13.679Z,15.60
2022-10-13T01:36:12.925Z,15.61
2022-10-13T01:38:50.828Z,15.61
2022-10-13T01:41:29.171Z,15.64
2022-10-13T01:44:05.369Z,15.66
2022-10-13T01:46:36.415Z,15.66
2022-10-13T01:49:07.402Z,15.65
2022-10-13T01:51:35.689Z,15.67
2022-10-13T01:54:02.639Z,15.66
2022-10-13T01:56:29.684Z,15.66
2022-10-13T01:58:59.735Z,15.68
2022-10-13T02:01:47.176Z,15.71
2022-10-13T02:04:34.891Z,15.70
2022-10-13T02:07:52.958Z,15.73
2022-10-13T02:10:35.135Z,15.71
2022-10-13T02:13:08.593Z,15.73
2022-10-13T02:15:41.127Z,15.73
2022-10-13T02:18:10.782Z,15.68
2022-10-13T02:20:37.869Z,15.66
2022-10-13T02:23:12.287Z,15.69
2022-10-13T02:25:39.962Z,15.71
2022-10-13T02:28:07.782Z,15.73
2022-10-13T02:30:43.316Z,15.74
2022-10-13T02:33:11.087Z,15.72
2022-10-13T02:35:39.007Z,15.74
2022-10-13T02:38:05.999Z,15.74
2022-10-13T02:40:32.972Z,15.74
2022-10-13T02:42:59.900Z,15.73
2022-10-13T02:45:27.034Z,15.75
2022-10-13T02:47:55.422Z,15.75
2022-10-13T02:50:22.414Z,15.77
2022-10-13T02:52:50.499Z,15.76
2022-10-13T02:55:17.592Z,15.73
2022-10-13T02:57:46.026Z,15.73
2022-10-13T03:00:13.848Z,15.68
2022-10-13T03:02:40.902Z,15.71
2022-10-13T03:05:08.741Z,15.70
2022-10-13T03:07:35.800Z,15.71
2022-10-13T03:10:02.841Z,15.70
2022-10-13T03:12:30.087Z,15.67
2022-10-13T03:14:57.561Z,15.69
2022-10-13T03:17:24.434Z,15.70
2022-10-13T03:19:52.057Z,15.69
2022-10-13T03:22:19.479Z,15.71
2022-10-13T03:24:46.870Z,15.67
2022-10-13T03:27:14.149Z,15.68
2022-10-13T03:29:41.461Z,15.65
2022-10-13T03:32:08.342Z,15.63
2022-10-13T03:34:35.902Z,15.61
2022-10-13T03:37:02.793Z,15.58
2022-10-13T03:39:33.912Z,15.57
2022-10-13T03:42:01.310Z,15.57
2022-10-13T03:44:28.220Z,15.60
2022-10-13T03:46:55.344Z,15.58
2022-10-13T03:49:22.595Z,15.57
2022-10-13T03:51:49.749Z,15.56
2022-10-13T03:54:16.674Z,15.57
2022-10-13T03:56:47.031Z,15.60
2022-10-13T03:59:17.285Z,15.62
2022-10-13T04:01:44.236Z,15.65
2022-10-13T04:04:13.248Z,15.69
2022-10-13T04:06:42.282Z,15.72
2022-10-13T04:09:09.805Z,15.76
2022-10-13T04:11:37.102Z,15.77
2022-10-13T04:14:04.442Z,15.76
2022-10-13T04:16:31.999Z,15.75
2022-10-13T04:19:05.310Z,15.73
2022-10-13T04:21:34.909Z,15.72
2022-10-13T04:24:02.692Z,15.73
2022-10-13T04:26:32.886Z,15.70
2022-10-13T04:29:08.859Z,15.70
2022-10-13T04:31:35.994Z,15.69
2022-10-13T04:34:03.267Z,15.69
2022-10-13T04:36:30.860Z,15.66
2022-10-13T04:38:57.883Z,15.66
2022-10-13T04:41:25.925Z,15.66
2022-10-13T04:43:54.445Z,15.70
2022-10-13T04:46:26.714Z,15.71
2022-10-13T04:48:56.207Z,15.65
2022-10-13T04:51:29.245Z,15.54
2022-10-13T04:53:58.029Z,15.48
2022-10-13T04:56:25.260Z,15.39
2022-10-13T04:58:52.375Z,15.38
2022-10-13T05:01:22.594Z,15.38
2022-10-13T05:03:59.331Z,15.39
2022-10-13T05:06:33.439Z,15.42
2022-10-13T05:09:01.295Z,15.42
2022-10-13T05:11:29.622Z,15.44
2022-10-13T05:13:57.656Z,15.46
2022-10-13T05:16:25.907Z,15.49
2022-10-13T05:18:55.092Z,15.52
2022-10-13T05:21:25.012Z,15.55
2022-10-13T05:23:55.982Z,15.56
2022-10-13T05:26:29.203Z,15.53
2022-10-13T05:28:57.072Z,15.54
2022-10-13T05:31:27.529Z,15.56
2022-10-13T05:33:57.135Z,15.57
2022-10-13T05:36:27.066Z,15.59
2022-10-13T05:38:56.602Z,15.59
2022-10-13T05:41:25.392Z,15.60
2022-10-13T05:43:59.945Z,15.65
2022-10-13T05:46:27.273Z,15.66
2022-10-13T05:48:54.655Z,15.66
2022-10-13T05:51:32.427Z,15.71
2022-10-13T05:54:14.339Z,15.73
2022-10-13T05:56:56.581Z,15.72
2022-10-13T05:59:27.582Z,15.73
2022-10-13T06:01:55.164Z,15.73
2022-10-13T06:04:37.721Z,15.77
2022-10-13T06:07:05.407Z,15.75
2022-10-13T06:09:38.202Z,15.78
2022-10-13T06:12:10.135Z,15.75
2022-10-13T06:14:37.427Z,15.75
2022-10-13T06:17:07.338Z,15.76
2022-10-13T06:19:34.811Z,15.77
2022-10-13T06:22:07.681Z,15.81
2022-10-13T06:24:35.021Z,15.84
2022-10-13T06:27:03.986Z,15.85
2022-10-13T06:29:32.999Z,15.86
2022-10-13T06:31:59.897Z,15.88
2022-10-13T06:34:26.888Z,15.94
2022-10-13T06:36:53.762Z,15.99
2022-10-13T06:39:21.343Z,15.98
2022-10-13T06:41:49.916Z,15.92
2022-10-13T06:44:16.836Z,15.94
2022-10-13T06:46:43.862Z,15.89
2022-10-13T06:49:10.836Z,15.93
2022-10-13T06:51:37.736Z,15.95
2022-10-13T06:54:04.930Z,15.89
2022-10-13T06:56:33.562Z,15.88
2022-10-13T06:59:05.522Z,15.87
2022-10-13T07:01:40.577Z,15.85
2022-10-13T07:04:12.616Z,15.88
2022-10-13T07:06:39.514Z,15.94
2022-10-13T07:09:07.723Z,15.87
2022-10-13T07:11:35.521Z,15.87
2022-10-13T07:14:04.862Z,15.84
2022-10-13T07:16:32.024Z,15.83
2022-10-13T07:18:58.979Z,15.79
2022-10-13T07:21:26.420Z,15.79
2022-10-13T07:23:53.393Z,15.85
2022-10-13T07:26:20.829Z,15.83
2022-10-13T07:28:48.000Z,15.86
2022-10-13T07:31:17.956Z,15.88
2022-10-13T07:33:47.559Z,15.93
2022-10-13T07:36:17.884Z,15.95
2022-10-13T07:38:45.154Z,15.99
2022-10-13T07:41:13.718Z,16.06
2022-10-13T07:43:41.829Z,16.11
2022-10-13T07:46:12.210Z,16.16
2022-10-13T07:48:39.212Z,16.15
2022-10-13T07:51:08.149Z,16.20
2022-10-13T07:53:35.605Z,16.22
2022-10-13T07:56:04.586Z,16.23
2022-10-13T07:58:31.582Z,16.22
2022-10-13T08:01:02.480Z,16.18
2022-10-13T08:03:30.420Z,16.17
2022-10-13T08:06:00.089Z,16.18
2022-10-13T08:08:28.078Z,16.19
2022-10-13T08:10:55.655Z,16.31
2022-10-13T08:13:23.685Z,16.44
2022-10-13T08:15:50.589Z,16.55
2022-10-13T08:18:17.561Z,16.66
2022-10-13T08:20:46.122Z,16.72
2022-10-13T08:23:13.773Z,16.82
2022-10-13T08:25:48.631Z,16.93
2022-10-13T08:28:26.047Z,17.03
2022-10-13T08:30:57.925Z,17.03
2022-10-13T08:33:25.982Z,16.94
2022-10-13T08:35:53.416Z,16.88
2022-10-13T08:38:20.533Z,16.84
2022-10-13T08:40:49.130Z,16.80
2022-10-13T08:43:20.355Z,16.94
2022-10-13T08:45:51.220Z,16.98
2022-10-13T08:48:22.621Z,17.04
2022-10-13T08:50:53.747Z,17.12
2022-10-13T08:53:37.020Z,17.19
2022-10-13T08:56:19.792Z,17.15
2022-10-13T08:58:49.103Z,17.17
2022-10-13T09:01:25.653Z,17.22
2022-10-13T09:04:11.265Z,17.24
2022-10-13T09:06:46.520Z,17.22
2022-10-13T09:09:16.554Z,17.20
2022-10-13T09:11:49.515Z,17.21
2022-10-13T09:14:30.195Z,17.36
2022-10-13T09:17:17.830Z,17.42
2022-10-13T09:19:57.088Z,17.42
2022-10-13T09:22:25.603Z,17.44
2022-10-13T09:25:12.888Z,17.34
2022-10-13T09:27:53.251Z,17.21
2022-10-13T09:30:42.031Z,17.18
2022-10-13T09:33:09.513Z,17.26
2022-10-13T09:35:38.100Z,17.41
2022-10-13T09:38:20.248Z,17.50
2022-10-13T09:41:06.925Z,17.56
2022-10-13T09:43:56.940Z,17.50
2022-10-13T09:46:36.371Z,17.61
2022-10-13T09:49:25.414Z,17.74
2022-10-13T09:51:52.723Z,17.82
2022-10-13T09:54:33.672Z,18.03
2022-10-13T09:57:06.438Z,18.17
2022-10-13T09:59:50.167Z,18.36
2022-10-13T10:02:47.840Z,18.47
2022-10-13T10:05:25.213Z,18.49
2022-10-13T10:08:04.563Z,18.53
2022-10-13T10:10:39.874Z,18.55
2022-10-13T10:13:12.884Z,18.53
2022-10-13T10:16:02.882Z,18.58
2022-10-13T10:18:53.845Z,18.61
2022-10-13T10:21:41.933Z,18.70
2022-10-13T10:24:29.925Z,18.78
2022-10-13T10:27:01.812Z,18.83
2022-10-13T10:29:47.001Z,19.00
2022-10-13T10:32:36.007Z,19.10
2022-10-13T10:35:12.458Z,19.10
2022-10-13T10:37:39.402Z,19.04
2022-10-13T10:40:40.253Z,19.11
2022-10-13T10:43:35.112Z,19.00
2022-10-13T10:46:02.499Z,18.94
2022-10-13T10:48:38.006Z,18.94
2022-10-13T10:51:12.891Z,18.89
2022-10-13T10:53:43.533Z,18.96
2022-10-13T10:56:27.939Z,18.98
2022-10-13T10:59:08.880Z,19.06
2022-10-13T11:01:36.923Z,19.08
2022-10-13T11:04:31.520Z,18.97
2022-10-13T11:06:58.784Z,19.00
2022-10-13T11:09:43.941Z,19.10
2022-10-13T11:12:20.025Z,19.06
2022-10-13T11:15:20.069Z,18.71
2022-10-13T11:17:47.700Z,18.68
2022-10-13T11:20:21.216Z,18.63
2022-10-13T11:23:00.641Z,18.61
2022-10-13T11:25:41.734Z,18.66
2022-10-13T11:28:21.707Z,18.58
2022-10-13T11:30:50.756Z,18.62
2022-10-13T11:33:41.121Z,18.64
2022-10-13T11:36:30.956Z,18.72
2022-10-13T11:39:27.878Z,18.73
2022-10-13T11:42:12.971Z,18.89
2022-10-13T11:44:51.317Z,19.01
2022-10-13T11:47:57.210Z,19.04
2022-10-13T11:50:46.384Z,19.02
2022-10-13T11:53:19.081Z,19.10
2022-10-13T11:55:56.611Z,19.15
2022-10-13T11:58:31.669Z,19.21
2022-10-13T12:01:03.281Z,19.30
2022-10-13T12:03:32.490Z,19.40
2022-10-13T12:06:17.428Z,19.36
2022-10-13T12:08:49.483Z,19.21
2022-10-13T12:11:26.000Z,19.27
2022-10-13T12:13:53.583Z,19.14
2022-10-13T12:16:21.842Z,19.11
2022-10-13T12:18:50.811Z,19.09
2022-10-13T12:21:21.223Z,19.03
2022-10-13T12:23:52.293Z,19.05
2022-10-13T12:26:22.990Z,19.01
2022-10-13T12:28:58.562Z,19.01
2022-10-13T12:31:38.090Z,18.99
2022-10-13T12:34:05.140Z,18.91
2022-10-13T12:36:35.521Z,18.91
2022-10-13T12:39:10.759Z,18.85
2022-10-13T12:41:43.202Z,18.75
2022-10-13T12:44:17.301Z,18.73
2022-10-13T12:46:46.804Z,18.67
2022-10-13T12:49:17.782Z,18.61
2022-10-13T12:51:49.115Z,18.39
2022-10-13T12:54:24.133Z,18.34
2022-10-13T12:56:56.093Z,18.20
2022-10-13T12:59:25.084Z,18.17
2022-10-13T13:02:01.325Z,18.19
2022-10-13T13:04:46.733Z,18.20
2022-10-13T13:07:33.798Z,18.24
2022-10-13T13:10:00.667Z,18.24
2022-10-13T13:12:29.128Z,18.28
2022-10-13T13:14:58.766Z,18.36
2022-10-13T13:20:31.118Z,18.46
2022-10-13T13:22:59.082Z,18.44
2022-10-13T13:25:26.942Z,18.44
2022-10-13T13:27:54.006Z,18.46
2022-10-13T13:30:23.036Z,18.42
2022-10-13T13:32:50.845Z,18.45
2022-10-13T13:35:18.971Z,18.45
2022-10-13T13:37:49.970Z,18.40
2022-10-13T13:40:23.033Z,18.44
2022-10-13T13:42:51.277Z,18.43
2022-10-13T13:45:22.015Z,18.49
2022-10-13T13:47:49.974Z,18.51
2022-10-13T13:50:20.732Z,18.53
2022-10-13T13:52:56.679Z,18.46
2022-10-13T13:55:24.525Z,18.45
2022-10-13T13:57:51.903Z,18.46
2022-10-13T14:00:19.556Z,18.45
2022-10-13T14:02:53.634Z,18.40
2022-10-13T14:05:20.850Z,18.36
2022-10-13T14:07:47.898Z,18.29
2022-10-13T14:10:14.870Z,18.29
2022-10-13T14:12:41.828Z,18.23
2022-10-13T14:15:09.513Z,18.22
2022-10-13T14:17:36.456Z,18.14
2022-10-13T14:20:03.543Z,18.10
2022-10-13T14:22:33.230Z,18.09
2022-10-13T14:25:00.156Z,18.08
2022-10-13T14:27:27.139Z,18.05
2022-10-13T14:29:55.836Z,18.03
2022-10-13T14:32:23.256Z,18.03
2022-10-13T14:34:50.403Z,18.04
2022-10-13T14:37:22.150Z,18.03
2022-10-13T14:39:51.946Z,17.99
2022-10-13T14:42:19.174Z,17.95
2022-10-13T14:44:46.086Z,17.94
2022-10-13T14:47:13.188Z,17.91
2022-10-13T14:49:41.160Z,17.87
2022-10-13T14:52:09.169Z,17.81
2022-10-13T14:54:37.419Z,17.76
2022-10-13T14:57:08.626Z,17.73
2022-10-13T14:59:36.111Z,17.70
2022-10-13T15:02:03.520Z,17.67
2022-10-13T15:04:30.804Z,17.60
2022-10-13T15:06:58.400Z,17.59
2022-10-13T15:09:38.644Z,17.57
2022-10-13T15:12:14.358Z,17.51
2022-10-13T15:14:41.233Z,17.48
2022-10-13T15:17:08.447Z,17.42
2022-10-13T15:19:36.219Z,17.35
2022-10-13T15:22:03.604Z,17.31
2022-10-13T15:24:30.475Z,17.24
2022-10-13T15:27:02.237Z,17.21
2022-10-13T15:29:29.899Z,17.22
2022-10-13T15:32:18.865Z,17.22
2022-10-13T15:34:58.258Z,17.15
2022-10-13T15:37:27.922Z,17.13
2022-10-13T15:39:57.522Z,17.08
2022-10-13T15:42:25.143Z,17.08
2022-10-13T15:47:39.617Z,16.93
2022-10-13T15:50:07.398Z,16.92
2022-10-13T15:52:40.043Z,16.88
2022-10-13T15:55:09.736Z,16.80
2022-10-13T15:57:36.655Z,16.83
2022-10-13T16:00:06.698Z,16.83
2022-10-13T16:02:40.646Z,16.80
2022-10-13T16:05:10.704Z,16.85
2022-10-13T16:07:40.178Z,16.81
2022-10-13T16:10:08.714Z,16.85
2022-10-13T16:12:36.062Z,16.84
2022-10-13T16:15:03.787Z,16.82
2022-10-13T16:17:31.069Z,16.75
2022-10-13T16:19:58.001Z,16.73
2022-10-13T16:22:25.493Z,16.70
2022-10-13T16:24:52.533Z,16.66
2022-10-13T16:27:19.612Z,16.64
2022-10-13T16:29:47.471Z,16.61
2022-10-13T16:32:14.576Z,16.61
2022-10-13T16:34:41.543Z,16.58
2022-10-13T16:37:08.485Z,16.59
2022-10-13T16:39:39.939Z,16.54
2022-10-13T16:42:09.587Z,16.51
2022-10-13T16:44:36.537Z,16.51
2022-10-13T16:47:05.047Z,16.49
2022-10-13T16:49:32.338Z,16.49
2022-10-13T16:51:59.620Z,16.48
2022-10-13T16:54:26.593Z,16.42
2022-10-13T16:57:17.285Z,16.43
2022-10-13T16:59:52.234Z,16.38
2022-10-13T17:02:21.510Z,16.39
2022-10-13T17:04:48.422Z,16.36
2022-10-13T17:07:15.397Z,16.33
2022-10-13T17:09:43.515Z,16.32
2022-10-13T17:12:10.454Z,16.31
2022-10-13T17:14:38.172Z,16.32
2022-10-13T17:17:05.687Z,16.33
2022-10-13T17:19:33.200Z,16.34
2022-10-13T17:22:00.055Z,16.35
2022-10-13T17:24:27.852Z,16.38
2022-10-13T17:26:54.715Z,16.40
2022-10-13T17:29:21.907Z,16.40
2022-10-13T17:31:49.285Z,16.41
2022-10-13T17:34:19.076Z,16.41
2022-10-13T17:36:45.955Z,16.43
2022-10-13T17:39:14.003Z,16.43
2022-10-13T17:41:41.394Z,16.42
2022-10-13T17:44:08.569Z,16.42
2022-10-13T17:46:38.287Z,16.43
2022-10-13T17:49:09.422Z,16.44
2022-10-13T17:51:36.951Z,16.44
2022-10-13T17:54:04.784Z,16.46
2022-10-13T17:56:31.990Z,16.44
2022-10-13T17:59:00.650Z,16.41
2022-10-13T18:01:34.280Z,16.37
2022-10-13T18:04:07.214Z,16.29
2022-10-13T18:06:38.489Z,16.25
2022-10-13T18:09:12.095Z,16.16
2022-10-13T18:11:39.920Z,16.08
2022-10-13T18:14:07.223Z,16.08
2022-10-13T18:16:36.321Z,16.07
2022-10-13T18:19:04.904Z,16.08
2022-10-13T18:21:32.409Z,16.11
2022-10-13T18:24:02.325Z,16.10
2022-10-13T18:26:37.434Z,16.07
2022-10-13T18:29:07.423Z,16.12
2022-10-13T18:31:36.749Z,16.14
2022-10-13T18:34:06.737Z,16.14
2022-10-13T18:36:37.107Z,16.08
2022-10-13T18:39:10.493Z,16.01
2022-10-13T18:41:39.903Z,15.95
2022-10-13T18:44:07.322Z,15.89
2022-10-13T18:46:36.176Z,15.89
2022-10-13T18:49:08.880Z,15.87
2022-10-13T18:51:39.377Z,15.86
2022-10-13T18:54:07.423Z,15.84
2022-10-13T18:57:04.629Z,15.83
2022-10-13T18:59:38.789Z,15.74
2022-10-13T19:02:15.105Z,15.70
2022-10-13T19:05:21.079Z,15.68
2022-10-13T19:15:03.600Z,15.65
2022-10-13T19:17:30.582Z,15.70
2022-10-13T19:19:57.497Z,15.71
2022-10-13T19:22:25.085Z,15.76
2022-10-13T19:24:52.289Z,15.79
2022-10-13T19:27:20.081Z,15.83
2022-10-13T19:29:47.377Z,15.83
2022-10-13T19:32:14.774Z,15.84
2022-10-13T19:34:41.848Z,15.84
2022-10-13T19:37:12.454Z,15.85
2022-10-13T19:39:39.673Z,15.86
2022-10-13T19:42:06.624Z,15.87
2022-10-13T19:44:33.666Z,15.88
2022-10-13T19:47:00.715Z,15.87
2022-10-13T19:49:28.131Z,15.89
2022-10-13T19:51:56.047Z,15.86
2022-10-13T19:54:23.394Z,15.88
2022-10-13T19:56:51.268Z,15.85
2022-10-13T19:59:18.931Z,15.86
2022-10-13T20:01:46.785Z,15.83
2022-10-13T20:04:16.499Z,15.79
2022-10-13T20:06:44.945Z,15.77
2022-10-13T20:09:12.318Z,15.75
2022-10-13T20:11:39.475Z,15.76
2022-10-13T20:14:06.521Z,15.75
2022-10-13T20:16:33.608Z,15.77
2022-10-13T20:19:01.560Z,15.78
2022-10-13T20:21:29.649Z,15.78
2022-10-13T20:23:56.975Z,15.80
2022-10-13T20:26:27.231Z,15.78
2022-10-13T20:28:54.898Z,15.80
2022-10-13T20:31:22.755Z,15.83
2022-10-13T20:33:58.198Z,15.84
2022-10-13T20:36:32.651Z,15.82
2022-10-13T20:39:05.562Z,15.82
2022-10-13T20:41:33.580Z,15.79
2022-10-13T20:44:01.859Z,15.77
2022-10-13T20:46:31.187Z,15.78
2022-10-13T20:49:13.768Z,15.78
2022-10-13T20:51:42.868Z,15.77
2022-10-13T20:54:11.450Z,15.71
2022-10-13T20:56:38.510Z,15.70
2022-10-13T20:59:09.054Z,15.72
2022-10-13T21:01:37.095Z,15.75
2022-10-13T21:04:04.701Z,15.76
2022-10-13T21:06:31.685Z,15.75
2022-10-13T21:09:00.477Z,15.73
2022-10-13T21:11:27.496Z,15.74
2022-10-13T21:13:54.483Z,15.73
2022-10-13T21:16:28.560Z,15.73
2022-10-13T21:18:58.073Z,15.71
2022-10-13T21:21:33.075Z,15.73
2022-10-13T21:24:03.640Z,15.72
2022-10-13T21:26:32.415Z,15.72
2022-10-13T21:29:00.616Z,15.72
2022-10-13T21:31:28.553Z,15.72
2022-10-13T21:33:56.961Z,15.69
2022-10-13T21:36:29.843Z,15.69
2022-10-13T21:38:59.745Z,15.68
2022-10-13T21:41:27.748Z,15.66
2022-10-13T21:43:55.643Z,15.60
2022-10-13T21:46:25.241Z,15.62
2022-10-13T21:48:58.936Z,15.61
2022-10-13T21:51:29.665Z,15.60
2022-10-13T21:54:00.109Z,15.58
2022-10-13T21:56:29.069Z,15.52
2022-10-13T21:58:56.448Z,15.51
2022-10-13T22:01:24.830Z,15.50
2022-10-13T22:03:57.881Z,15.50
2022-10-13T22:06:29.971Z,15.39
2022-10-13T22:08:59.213Z,15.41
2022-10-13T22:11:28.141Z,15.40
2022-10-13T22:13:59.282Z,15.41
2022-10-13T22:16:33.364Z,15.41
2022-10-13T22:19:00.646Z,15.41
2022-10-13T22:21:30.702Z,15.45
2022-10-13T22:24:02.862Z,15.45
2022-10-13T22:26:32.566Z,15.45
2022-10-13T22:29:02.311Z,15.46
2022-10-13T22:31:30.941Z,15.49
2022-10-13T22:33:58.974Z,15.51
2022-10-13T22:36:27.732Z,15.52
2022-10-13T22:38:57.614Z,15.54
2022-10-13T22:41:25.648Z,15.49
2022-10-13T22:43:54.926Z,15.48
2022-10-13T22:46:26.511Z,15.51
2022-10-13T22:48:53.784Z,15.46
2022-10-13T22:51:22.301Z,15.48
2022-10-13T22:53:50.549Z,15.46
2022-10-13T22:56:26.356Z,15.47
2022-10-13T22:58:59.562Z,15.46
2022-10-13T23:01:27.733Z,15.40
2022-10-13T23:03:57.273Z,15.41
2022-10-13T23:06:30.054Z,15.38
2022-10-13T23:09:00.652Z,15.36
2022-10-13T23:11:27.899Z,15.29
2022-10-13T23:13:55.773Z,15.30
2022-10-13T23:16:24.789Z,15.28
2022-10-13T23:18:52.238Z,15.23
2022-10-13T23:21:28.916Z,15.24
2022-10-13T23:24:01.512Z,15.20
2022-10-13T23:26:29.677Z,15.17
2022-10-13T23:28:57.640Z,15.19
2022-10-13T23:31:26.050Z,15.21
2022-10-13T23:33:53.277Z,15.24
2022-10-13T23:36:23.216Z,15.27
2022-10-13T23:39:02.509Z,15.32
2022-10-13T23:41:29.660Z,15.27
2022-10-13T23:43:56.829Z,15.30
2022-10-13T23:46:24.382Z,15.32
2022-10-13T23:48:51.535Z,15.35
2022-10-13T23:51:21.783Z,15.37
2022-10-13T23:53:49.141Z,15.36
2022-10-13T23:56:17.668Z,15.39
2022-10-13T23:58:45.122Z,15.39
